Time;durP1;ratioP1;P1;durP2;ratioP2;P2;SDS_P1;SDS_P2;PMS_P1;PMS_P2;Temp;Humidity;BMP_temperature;BMP_pressure;BME280_temperature;BME280_humidity;BME280_pressure;Samples;Min_cycle;Max_cycle;Signal;HPM_P1;HPM_P2
2023/04/06 00:01:00;;;;;;;13.53;11.23;;;0.90;99.90;;;;;;5060467;28;20529;-63
2023/04/06 00:03:27;;;;;;;14.40;10.10;;;0.90;99.90;;;;;;5059947;28;20517;-64
2023/04/06 00:05:55;;;;;;;15.83;11.13;;;0.80;99.90;;;;;;5060234;28;20833;-64
2023/04/06 00:08:23;;;;;;;13.77;10.70;;;0.70;99.90;;;;;;5059732;28;20464;-64
2023/04/06 00:10:52;;;;;;;15.97;11.03;;;0.60;99.90;;;;;;5059926;28;20820;-63
2023/04/06 00:13:19;;;;;;;21.43;11.60;;;0.50;99.90;;;;;;5059299;28;20473;-64
2023/04/06 00:15:46;;;;;;;15.33;11.30;;;0.50;99.90;;;;;;5059953;28;20928;-63
2023/04/06 00:18:14;;;;;;;15.23;11.40;;;0.50;99.90;;;;;;5059089;28;20549;-64
2023/04/06 00:20:41;;;;;;;15.70;9.80;;;0.50;99.90;;;;;;5059907;28;20466;-63
2023/04/06 00:23:08;;;;;;;13.33;11.50;;;0.50;99.90;;;;;;5059147;28;20462;-64
2023/04/06 00:25:36;;;;;;;15.97;11.13;;;0.40;99.90;;;;;;5060117;28;20539;-64
2023/04/06 00:28:05;;;;;;;12.40;11.10;;;0.50;99.90;;;;;;5059018;28;20489;-64
2023/04/06 00:30:32;;;;;;;14.40;11.60;;;0.50;99.90;;;;;;5059845;28;20813;-64
2023/04/06 00:33:00;;;;;;;18.13;11.27;;;0.40;99.90;;;;;;5059875;28;20766;-64
2023/04/06 00:35:27;;;;;;;15.13;11.13;;;0.40;99.90;;;;;;5060347;28;20516;-63
2023/04/06 00:37:55;;;;;;;14.90;11.30;;;0.40;99.90;;;;;;5059333;28;20500;-63
2023/04/06 00:40:22;;;;;;;16.40;11.93;;;0.40;99.90;;;;;;5059602;28;20777;-64
2023/04/06 00:42:49;;;;;;;16.53;11.93;;;0.40;99.90;;;;;;5060298;28;20491;-64
2023/04/06 00:45:18;;;;;;;18.60;12.20;;;0.40;99.90;;;;;;5060119;28;20472;-64
2023/04/06 00:47:46;;;;;;;15.13;10.80;;;0.40;99.90;;;;;;5060244;28;20490;-64
2023/04/06 00:50:13;;;;;;;19.27;13.07;;;0.40;99.90;;;;;;5059065;28;20872;-64
2023/04/06 00:52:40;;;;;;;18.37;11.90;;;0.40;99.90;;;;;;5058503;28;20502;-63
2023/04/06 00:55:08;;;;;;;16.67;12.03;;;0.40;99.90;;;;;;5056175;28;20877;-64
2023/04/06 00:57:36;;;;;;;15.00;11.70;;;0.30;99.90;;;;;;5058177;28;20491;-63
2023/04/06 01:00:04;;;;;;;15.93;12.17;;;0.20;99.90;;;;;;5058354;28;20479;-64
2023/04/06 01:02:35;;;;;;;13.73;10.90;;;0.30;99.90;;;;;;5058279;28;20547;-64
2023/04/06 01:05:02;;;;;;;16.80;12.13;;;0.30;99.90;;;;;;5055745;28;20553;-64
2023/04/06 01:07:30;;;;;;;15.13;11.27;;;0.50;99.90;;;;;;5058489;28;20453;-64
2023/04/06 01:09:57;;;;;;;17.57;13.23;;;0.50;99.90;;;;;;5058162;28;20460;-64
2023/04/06 01:12:25;;;;;;;16.03;11.23;;;0.50;99.90;;;;;;5056055;28;20470;-64
2023/04/06 01:14:52;;;;;;;13.47;11.80;;;0.60;99.90;;;;;;5057968;28;20517;-64
2023/04/06 01:17:19;;;;;;;15.40;11.40;;;0.60;99.90;;;;;;5057995;28;20520;-63
2023/04/06 01:19:49;;;;;;;18.40;12.13;;;0.70;99.90;;;;;;5058441;28;20513;-64
2023/04/06 01:25:40;;;;;;;18.87;12.10;;;0.60;99.90;;;;;;5059004;28;20474;-64
2023/04/06 01:28:07;;;;;;;13.60;10.90;;;0.60;99.90;;;;;;5059310;28;20459;-64
2023/04/06 01:30:35;;;;;;;12.23;10.53;;;0.50;99.90;;;;;;5059314;28;20498;-64
2023/04/06 01:33:02;;;;;;;15.00;10.80;;;0.60;99.90;;;;;;5058583;28;20464;-64
2023/04/06 01:35:31;;;;;;;14.70;12.03;;;0.50;99.90;;;;;;5058375;28;20467;-64
2023/04/06 01:37:58;;;;;;;14.93;11.50;;;0.50;99.90;;;;;;5058276;28;20500;-64
2023/04/06 01:40:25;;;;;;;11.43;10.10;;;0.50;99.90;;;;;;5058763;28;20473;-64
2023/04/06 01:42:54;;;;;;;14.70;10.77;;;0.50;99.90;;;;;;5058915;28;20519;-64
2023/04/06 01:45:21;;;;;;;14.97;10.50;;;0.60;99.90;;;;;;5059129;28;20471;-64
2023/04/06 01:47:48;;;;;;;15.83;10.23;;;0.60;99.90;;;;;;5059134;28;20489;-64
2023/04/06 01:50:16;;;;;;;15.57;10.67;;;0.60;99.90;;;;;;5058892;28;20462;-64
2023/04/06 01:52:43;;;;;;;17.33;11.80;;;0.60;99.90;;;;;;5058509;28;20470;-64
2023/04/06 01:55:10;;;;;;;13.63;10.70;;;0.50;99.90;;;;;;5058703;28;20465;-64
2023/04/06 01:57:38;;;;;;;19.70;11.43;;;0.50;99.90;;;;;;5058429;28;20495;-64
2023/04/06 02:00:08;;;;;;;13.10;10.47;;;0.50;99.90;;;;;;5058600;28;20460;-64
2023/04/06 02:02:35;;;;;;;16.73;11.70;;;0.60;99.90;;;;;;5058461;28;20463;-64
2023/04/06 02:05:02;;;;;;;13.90;11.27;;;0.50;99.90;;;;;;5058333;28;20468;-63
2023/04/06 02:07:30;;;;;;;13.47;10.63;;;0.40;99.90;;;;;;5058653;28;20461;-64
2023/04/06 02:09:57;;;;;;;13.17;10.83;;;0.40;99.90;;;;;;5058313;28;20464;-64
2023/04/06 02:12:25;;;;;;;14.37;10.90;;;0.40;99.90;;;;;;5057008;28;20461;-64
2023/04/06 02:14:52;;;;;;;13.23;10.07;;;0.40;99.90;;;;;;5057810;28;20518;-64
2023/04/06 02:17:21;;;;;;;15.10;10.90;;;0.30;99.90;;;;;;5057331;28;20880;-64
2023/04/06 02:19:48;;;;;;;14.50;10.50;;;0.30;99.90;;;;;;5057454;28;20455;-64
2023/04/06 02:22:16;;;;;;;11.67;9.80;;;0.30;99.90;;;;;;5057400;28;20505;-64
2023/04/06 02:24:46;;;;;;;20.77;11.77;;;0.30;99.90;;;;;;5057871;28;20518;-64
2023/04/06 02:27:21;;;;;;;15.20;11.07;;;0.30;99.90;;;;;;5057786;28;20458;-64
2023/04/06 02:29:48;;;;;;;12.70;10.83;;;0.30;99.90;;;;;;5057355;28;20888;-64
2023/04/06 02:32:15;;;;;;;17.47;12.10;;;0.30;99.90;;;;;;5057017;28;20762;-64
2023/04/06 02:34:44;;;;;;;13.63;10.10;;;0.30;99.90;;;;;;5056886;28;20952;-64
2023/04/06 02:37:11;;;;;;;15.10;11.53;;;0.20;99.90;;;;;;5057452;28;21022;-64
2023/04/06 02:39:39;;;;;;;16.20;10.30;;;0.20;99.90;;;;;;5057393;28;20467;-64
2023/04/06 02:42:08;;;;;;;13.80;11.20;;;0.20;99.90;;;;;;5058086;28;20959;-64
2023/04/06 02:44:35;;;;;;;14.80;10.87;;;0.10;99.90;;;;;;5057588;28;20554;-64
2023/04/06 02:47:03;;;;;;;11.77;9.90;;;0.10;99.90;;;;;;5058440;28;20479;-64
2023/04/06 02:49:30;;;;;;;14.30;10.43;;;0.10;99.90;;;;;;5057741;28;20459;-64
2023/04/06 02:51:59;;;;;;;12.17;9.90;;;0.00;99.90;;;;;;5060546;28;20524;-64
2023/04/06 02:54:26;;;;;;;15.20;10.40;;;0.00;99.90;;;;;;5063819;28;20470;-64
2023/04/06 02:56:53;;;;;;;13.80;10.87;;;0.00;99.90;;;;;;5064335;28;20466;-64
2023/04/06 02:59:21;;;;;;;17.47;11.30;;;0.00;99.90;;;;;;5064217;28;20997;-64
2023/04/06 03:01:48;;;;;;;12.77;10.53;;;0.00;99.90;;;;;;5064921;28;20463;-64
2023/04/06 03:04:15;;;;;;;13.50;10.60;;;0.00;99.90;;;;;;5064141;28;20518;-64
2023/04/06 03:06:43;;;;;;;15.70;11.93;;;-0.10;99.90;;;;;;5063937;28;20463;-64
2023/04/06 03:09:11;;;;;;;17.40;10.93;;;-0.10;99.90;;;;;;5064019;28;20464;-64
2023/04/06 03:11:39;;;;;;;10.70;9.60;;;-0.20;99.90;;;;;;5063978;28;20809;-64
2023/04/06 03:14:06;;;;;;;15.77;11.10;;;-0.20;99.90;;;;;;5064282;28;20458;-64
2023/04/06 03:16:33;;;;;;;15.70;11.40;;;-0.10;99.90;;;;;;5064173;28;20463;-64
2023/04/06 03:19:01;;;;;;;17.23;12.13;;;-0.10;99.90;;;;;;5064367;28;20494;-64
2023/04/06 03:21:28;;;;;;;15.17;11.53;;;-0.10;99.90;;;;;;5063924;28;20919;-64
2023/04/06 03:23:55;;;;;;;16.07;11.40;;;-0.10;99.90;;;;;;5063938;28;20454;-64
2023/04/06 03:26:24;;;;;;;16.67;10.90;;;-0.30;99.90;;;;;;5063323;28;20464;-65
2023/04/06 03:28:51;;;;;;;17.23;11.87;;;-0.20;99.90;;;;;;5063589;28;20465;-64
2023/04/06 03:31:18;;;;;;;13.67;11.20;;;-0.10;99.90;;;;;;5064028;28;20540;-64
2023/04/06 03:33:46;;;;;;;14.67;10.30;;;-0.20;99.90;;;;;;5063455;28;20458;-64
2023/04/06 03:36:14;;;;;;;14.33;11.20;;;-0.10;99.90;;;;;;5063834;28;20772;-64
2023/04/06 03:38:42;;;;;;;16.50;12.03;;;-0.20;99.90;;;;;;5063777;28;20474;-64
2023/04/06 03:41:09;;;;;;;15.63;11.77;;;-0.10;99.90;;;;;;5064339;28;20467;-64
2023/04/06 03:43:38;;;;;;;16.27;12.03;;;-0.10;99.90;;;;;;5064249;28;20461;-64
2023/04/06 03:46:06;;;;;;;16.10;11.37;;;-0.20;99.90;;;;;;5064086;28;20462;-64
2023/04/06 03:48:33;;;;;;;14.13;11.07;;;-0.30;99.90;;;;;;5064013;28;20454;-64
2023/04/06 03:51:09;;;;;;;16.80;11.10;;;-0.30;99.90;;;;;;5064140;28;20516;-64
2023/04/06 03:53:37;;;;;;;14.40;10.83;;;-0.10;99.90;;;;;;5064279;28;20440;-64
2023/04/06 03:56:06;;;;;;;15.40;11.70;;;-0.20;99.90;;;;;;5064487;28;20459;-64
2023/04/06 03:58:33;;;;;;;15.70;12.03;;;-0.30;99.90;;;;;;5064192;28;20584;-64
2023/04/06 04:01:02;;;;;;;15.43;11.53;;;-0.20;99.90;;;;;;5064211;28;20464;-64
2023/04/06 04:03:29;;;;;;;14.37;11.17;;;-0.20;99.90;;;;;;5060720;28;20470;-64
2023/04/06 04:05:56;;;;;;;15.50;11.53;;;-0.10;99.90;;;;;;5060963;28;20437;-64
2023/04/06 04:08:24;;;;;;;16.03;11.23;;;-0.10;99.90;;;;;;5061228;28;20467;-64
2023/04/06 04:10:51;;;;;;;13.60;10.70;;;0.10;99.90;;;;;;5061298;28;20467;-64
2023/04/06 04:13:18;;;;;;;17.37;11.50;;;-0.10;99.90;;;;;;5061124;28;20464;-64
2023/04/06 04:15:47;;;;;;;16.70;11.07;;;-0.10;99.90;;;;;;5060127;28;20459;-64
2023/04/06 04:18:16;;;;;;;14.30;10.60;;;-0.10;99.90;;;;;;5060246;28;20534;-63
2023/04/06 04:20:43;;;;;;;15.03;11.70;;;-0.20;99.90;;;;;;5059505;28;20464;-63
2023/04/06 04:23:10;;;;;;;16.90;10.53;;;-0.10;99.90;;;;;;5059683;28;20464;-63
2023/04/06 04:25:38;;;;;;;13.17;10.90;;;-0.10;99.90;;;;;;5060416;28;20466;-63
2023/04/06 04:28:05;;;;;;;14.23;11.13;;;0.00;99.90;;;;;;5060139;28;20887;-63
2023/04/06 04:30:33;;;;;;;12.67;11.30;;;-0.10;99.90;;;;;;5059959;28;20463;-63
2023/04/06 04:33:00;;;;;;;17.03;11.60;;;-0.10;99.90;;;;;;5059911;28;20555;-63
2023/04/06 04:35:29;;;;;;;14.00;10.47;;;-0.20;99.90;;;;;;5060022;28;20470;-63
2023/04/06 04:37:56;;;;;;;14.97;11.27;;;-0.30;99.90;;;;;;5059329;28;20498;-63
2023/04/06 04:40:23;;;;;;;12.77;10.33;;;-0.30;99.90;;;;;;5059457;28;20591;-62
2023/04/06 04:42:51;;;;;;;16.23;11.63;;;-0.30;99.90;;;;;;5059575;28;20502;-63
2023/04/06 04:45:19;;;;;;;15.27;10.93;;;-0.30;99.90;;;;;;5059795;28;20467;-63
2023/04/06 04:47:46;;;;;;;16.90;11.20;;;-0.30;99.90;;;;;;5055371;28;20470;-62
2023/04/06 04:50:14;;;;;;;14.00;10.57;;;-0.20;99.90;;;;;;5059485;28;20753;-63
2023/04/06 04:52:46;;;;;;;16.50;11.13;;;-0.30;99.90;;;;;;5059043;28;20470;-63
2023/04/06 04:55:13;;;;;;;15.03;11.30;;;-0.30;99.90;;;;;;5059535;28;20491;-62
2023/04/06 04:57:40;;;;;;;13.80;9.93;;;-0.30;99.90;;;;;;5059133;28;20486;-63
2023/04/06 05:00:08;;;;;;;17.63;11.60;;;-0.30;99.90;;;;;;5058233;28;20828;-62
2023/04/06 05:02:36;;;;;;;14.57;10.80;;;-0.30;99.90;;;;;;5058787;28;20487;-63
2023/04/06 05:05:03;;;;;;;14.70;11.43;;;-0.30;99.90;;;;;;5058370;28;20474;-62
2023/04/06 05:07:31;;;;;;;13.97;10.40;;;-0.30;99.90;;;;;;5059194;28;20570;-63
2023/04/06 05:10:09;;;;;;;14.90;11.90;;;-0.30;99.90;;;;;;5058793;28;20462;-62
2023/04/06 05:12:37;;;;;;;13.87;11.17;;;-0.10;99.90;;;;;;5038975;28;20509;-63
2023/04/06 05:15:05;;;;;;;16.67;11.93;;;-0.10;99.90;;;;;;5038475;28;20479;-63
2023/04/06 05:17:32;;;;;;;15.00;11.70;;;0.00;99.90;;;;;;5039030;28;20463;-63
2023/04/06 05:20:00;;;;;;;16.60;11.00;;;0.00;99.90;;;;;;5038947;28;20561;-63
2023/04/06 05:22:27;;;;;;;15.67;12.47;;;0.00;99.90;;;;;;5042439;28;20464;-63
2023/04/06 05:24:54;;;;;;;19.03;11.37;;;0.10;99.90;;;;;;5057173;28;20462;-63
2023/04/06 05:27:23;;;;;;;13.57;11.33;;;0.30;99.90;;;;;;5056750;28;20534;-63
2023/04/06 05:29:51;;;;;;;24.80;10.60;;;0.30;99.90;;;;;;5054693;28;20450;-63
2023/04/06 05:32:21;;;;;;;14.70;10.33;;;0.40;99.90;;;;;;5055417;28;20490;-63
2023/04/06 05:34:49;;;;;;;13.80;10.83;;;0.40;99.90;;;;;;5053133;28;20540;-62
2023/04/06 05:37:17;;;;;;;15.80;10.90;;;0.50;99.90;;;;;;5055590;28;20497;-63
2023/04/06 05:39:44;;;;;;;11.73;10.03;;;0.60;99.90;;;;;;5056538;28;20499;-62
2023/04/06 05:42:12;;;;;;;17.20;11.13;;;0.70;99.90;;;;;;5055753;28;20517;-62
2023/04/06 05:44:40;;;;;;;15.60;11.40;;;0.70;99.90;;;;;;5056266;28;20458;-63
2023/04/06 05:47:08;;;;;;;15.83;10.60;;;0.80;99.90;;;;;;5054519;28;20451;-63
2023/04/06 05:49:35;;;;;;;12.77;11.20;;;0.80;99.90;;;;;;5056755;28;20751;-62
2023/04/06 05:52:04;;;;;;;11.93;10.50;;;0.90;99.90;;;;;;5055847;28;20879;-63
2023/04/06 05:54:31;;;;;;;15.40;10.30;;;1.00;99.90;;;;;;5055339;28;20567;-63
2023/04/06 05:56:58;;;;;;;11.23;10.03;;;1.10;99.90;;;;;;5055766;28;20545;-63
2023/04/06 05:59:25;;;;;;;15.57;10.20;;;1.10;99.90;;;;;;5053368;28;20497;-63
2023/04/06 06:01:54;;;;;;;13.17;10.20;;;1.20;99.90;;;;;;5056143;28;20456;-63
2023/04/06 06:04:21;;;;;;;13.07;9.67;;;1.40;99.90;;;;;;5055616;28;20487;-63
2023/04/06 06:06:49;;;;;;;12.50;10.17;;;1.50;99.90;;;;;;5055881;28;20463;-63
2023/04/06 06:09:16;;;;;;;12.60;9.87;;;1.60;99.90;;;;;;5055370;28;20456;-63
2023/04/06 06:11:46;;;;;;;12.53;9.40;;;1.80;99.90;;;;;;5055539;28;20911;-63
2023/04/06 06:14:13;;;;;;;12.90;10.03;;;2.00;99.90;;;;;;5054879;28;20529;-63
2023/04/06 06:16:40;;;;;;;12.40;9.37;;;2.20;99.90;;;;;;5054946;28;20468;-63
2023/04/06 06:19:09;;;;;;;11.30;9.70;;;2.40;99.90;;;;;;5053063;28;20510;-63
2023/04/06 06:21:36;;;;;;;11.50;9.30;;;2.50;99.90;;;;;;5054739;28;20509;-64
2023/04/06 06:24:04;;;;;;;12.60;9.97;;;2.70;99.90;;;;;;5055195;28;20655;-63
2023/04/06 06:26:31;;;;;;;10.53;8.53;;;2.80;99.90;;;;;;5053601;28;20471;-63
2023/04/06 06:28:58;;;;;;;10.97;8.57;;;3.10;99.90;;;;;;5055212;28;20871;-63
2023/04/06 06:31:26;;;;;;;9.20;8.30;;;3.40;99.90;;;;;;5050882;28;20945;-63
2023/04/06 06:33:53;;;;;;;9.57;7.60;;;3.60;99.90;;;;;;5054989;28;20957;-60
2023/04/06 06:36:22;;;;;;;10.67;8.03;;;3.80;99.90;;;;;;5054478;28;20511;-60
2023/04/06 06:38:49;;;;;;;11.23;7.70;;;4.10;99.90;;;;;;5053561;28;20502;-61
2023/04/06 06:41:17;;;;;;;12.97;9.17;;;4.50;99.90;;;;;;5053781;28;20451;-64
2023/04/06 06:43:47;;;;;;;11.10;8.03;;;4.80;99.90;;;;;;5054033;28;20528;-64
2023/04/06 06:46:15;;;;;;;9.33;8.37;;;5.00;99.90;;;;;;5053252;28;20469;-65
2023/04/06 06:48:42;;;;;;;9.30;7.53;;;5.20;99.90;;;;;;5053142;28;20461;-64
2023/04/06 06:51:11;;;;;;;8.90;8.00;;;5.40;99.90;;;;;;5055305;28;20915;-64
2023/04/06 06:53:40;;;;;;;11.57;7.57;;;5.60;99.90;;;;;;5055123;28;20462;-64
2023/04/06 06:56:07;;;;;;;9.93;7.60;;;5.70;99.90;;;;;;5051433;28;20495;-64
2023/04/06 06:58:35;;;;;;;8.40;7.20;;;5.80;99.90;;;;;;5054543;28;20498;-64
2023/04/06 07:01:02;;;;;;;9.30;7.60;;;6.00;99.90;;;;;;5055216;28;20497;-64
2023/04/06 07:03:29;;;;;;;8.13;7.10;;;6.20;99.90;;;;;;5057032;28;20468;-63
2023/04/06 07:05:57;;;;;;;13.00;8.93;;;6.40;99.90;;;;;;5055480;28;20924;-63
2023/04/06 07:08:25;;;;;;;18.33;11.23;;;6.60;99.90;;;;;;5054678;28;20469;-63
2023/04/06 07:10:56;;;;;;;20.67;13.70;;;6.80;99.90;;;;;;5055329;28;20462;-63
2023/04/06 07:13:23;;;;;;;16.20;12.27;;;7.10;99.90;;;;;;5055078;28;20480;-63
2023/04/06 07:15:51;;;;;;;33.07;18.30;;;7.30;99.90;;;;;;5055278;28;20520;-64
2023/04/06 07:18:18;;;;;;;14.17;10.93;;;7.40;99.90;;;;;;5055507;28;20467;-62
2023/04/06 07:20:46;;;;;;;12.60;10.23;;;7.40;99.90;;;;;;5056343;28;20543;-62
2023/04/06 07:23:13;;;;;;;11.50;8.40;;;7.70;99.90;;;;;;5056871;28;20465;-62
2023/04/06 07:25:40;;;;;;;17.30;11.97;;;7.90;99.90;;;;;;5056947;28;20462;-62
2023/04/06 07:28:09;;;;;;;20.47;13.57;;;8.20;99.90;;;;;;5056670;28;20520;-63
2023/04/06 07:30:37;;;;;;;14.10;10.97;;;8.40;99.90;;;;;;5054437;28;20458;-62
2023/04/06 07:33:05;;;;;;;12.07;8.87;;;8.50;99.90;;;;;;5054167;28;20516;-62
2023/04/06 07:35:32;;;;;;;16.70;12.30;;;8.80;99.90;;;;;;5055138;28;20462;-62
2023/04/06 07:38:00;;;;;;;13.53;11.00;;;9.10;99.90;;;;;;5056498;28;21142;-62
2023/04/06 07:40:27;;;;;;;22.10;16.17;;;9.30;99.90;;;;;;5058836;28;20532;-60
2023/04/06 07:42:55;;;;;;;25.20;17.17;;;9.60;99.90;;;;;;5057838;28;20823;-61
2023/04/06 07:45:24;;;;;;;13.30;10.93;;;10.00;99.90;;;;;;5059590;28;20466;-62
2023/04/06 07:47:51;;;;;;;14.80;10.87;;;10.10;99.90;;;;;;5060093;28;20462;-62
2023/04/06 07:50:18;;;;;;;19.93;15.20;;;10.30;99.90;;;;;;5058886;28;20454;-62
2023/04/06 07:52:46;;;;;;;14.20;11.43;;;10.50;99.90;;;;;;5058500;28;20490;-63
2023/04/06 07:55:13;;;;;;;11.20;9.77;;;10.40;99.90;;;;;;5059269;28;20887;-62
2023/04/06 07:57:40;;;;;;;12.13;9.27;;;10.40;99.90;;;;;;5058916;28;20834;-61
2023/04/06 08:00:10;;;;;;;20.97;16.80;;;10.50;99.90;;;;;;5058717;28;20584;-62
2023/04/06 08:02:38;;;;;;;11.80;9.70;;;10.60;99.90;;;;;;5059065;28;20515;-60
2023/04/06 08:05:06;;;;;;;12.03;10.43;;;10.60;99.90;;;;;;5058794;28;20786;-62
2023/04/06 08:07:34;;;;;;;14.03;11.13;;;10.80;99.90;;;;;;5058829;28;20462;-60
2023/04/06 08:10:01;;;;;;;11.60;10.30;;;11.10;99.90;;;;;;5058632;28;20458;-62
2023/04/06 08:12:28;;;;;;;10.33;9.30;;;11.20;99.90;;;;;;5059587;28;20473;-59
2023/04/06 08:14:56;;;;;;;10.13;8.63;;;11.10;99.90;;;;;;5059732;28;20466;-58
2023/04/06 08:17:23;;;;;;;12.17;8.27;;;11.30;99.90;;;;;;5059545;28;20532;-58
2023/04/06 08:19:52;;;;;;;13.50;9.30;;;11.50;99.90;;;;;;5058666;28;20482;-62
2023/04/06 08:22:19;;;;;;;9.67;8.77;;;11.40;99.90;;;;;;5059478;28;20462;-59
2023/04/06 08:24:47;;;;;;;9.93;8.70;;;11.70;99.90;;;;;;5059372;28;20519;-58
2023/04/06 08:27:14;;;;;;;14.17;9.50;;;12.20;99.90;;;;;;5058276;28;20462;-56
2023/04/06 08:29:42;;;;;;;10.10;8.27;;;12.70;99.90;;;;;;5058198;28;20454;-62
2023/04/06 08:32:09;;;;;;;10.60;8.80;;;13.00;99.90;;;;;;5058001;28;20497;-63
2023/04/06 08:34:36;;;;;;;9.60;8.63;;;13.00;99.90;;;;;;5057927;28;20505;-58
2023/04/06 08:37:05;;;;;;;15.00;9.47;;;13.00;99.90;;;;;;5058081;28;20545;-61
2023/04/06 08:39:33;;;;;;;11.80;10.20;;;12.80;99.90;;;;;;5055919;28;20577;-62
2023/04/06 08:42:02;;;;;;;11.73;9.10;;;12.60;99.90;;;;;;5058703;28;20765;-57
2023/04/06 08:44:31;;;;;;;11.10;9.60;;;12.50;99.90;;;;;;5058048;28;20484;-62
2023/04/06 08:47:00;;;;;;;9.60;8.50;;;12.70;99.90;;;;;;5058749;28;20763;-59
2023/04/06 08:49:28;;;;;;;12.73;9.90;;;12.60;99.90;;;;;;5058080;28;20462;-63
2023/04/06 08:51:57;;;;;;;11.73;9.37;;;12.90;99.90;;;;;;5058822;28;20512;-62
2023/04/06 08:54:25;;;;;;;11.53;10.30;;;12.70;99.90;;;;;;5056969;28;20462;-62
2023/04/06 08:56:56;;;;;;;10.50;9.43;;;12.30;99.90;;;;;;5056832;28;20469;-62
2023/04/06 08:59:25;;;;;;;12.30;9.27;;;12.30;99.90;;;;;;5058210;28;20466;-62
2023/04/06 09:01:54;;;;;;;11.63;10.43;;;12.10;99.90;;;;;;5056451;28;20462;-61
2023/04/06 09:04:21;;;;;;;12.83;10.73;;;12.20;99.90;;;;;;5054278;28;20466;-62
2023/04/06 09:06:49;;;;;;;12.77;9.43;;;12.20;99.90;;;;;;5056864;28;20457;-61
2023/04/06 09:09:17;;;;;;;14.47;9.93;;;12.10;99.90;;;;;;5055693;28;20458;-62
2023/04/06 09:11:47;;;;;;;16.30;10.60;;;12.30;99.90;;;;;;5055353;28;20454;-62
2023/04/06 09:14:15;;;;;;;10.97;9.83;;;12.30;99.90;;;;;;5054110;28;20455;-62
2023/04/06 09:16:43;;;;;;;11.80;9.77;;;12.30;99.90;;;;;;5053376;28;20454;-62
2023/04/06 09:19:13;;;;;;;14.53;11.93;;;12.10;99.90;;;;;;5054916;28;20474;-62
2023/04/06 09:21:40;;;;;;;16.80;11.50;;;12.20;99.90;;;;;;5056601;28;20490;-61
2023/04/06 09:24:09;;;;;;;14.10;12.00;;;12.30;99.90;;;;;;5055851;28;20454;-62
2023/04/06 09:26:47;;;;;;;14.70;11.53;;;12.40;99.90;;;;;;5056248;28;20493;-61
2023/04/06 09:29:26;;;;;;;12.70;11.40;;;12.30;99.90;;;;;;5054332;28;20934;-61
2023/04/06 09:31:53;;;;;;;15.30;12.60;;;12.50;99.90;;;;;;5055627;28;20458;-61
2023/04/06 09:34:24;;;;;;;13.47;12.07;;;12.60;99.90;;;;;;5055785;28;20830;-62
2023/04/06 09:36:52;;;;;;;13.13;11.50;;;12.70;99.90;;;;;;5053807;28;20504;-62
2023/04/06 09:39:23;;;;;;;16.50;13.40;;;12.90;99.90;;;;;;5052834;28;20501;-62
2023/04/06 09:41:54;;;;;;;15.40;12.73;;;12.90;99.90;;;;;;5055406;28;20784;-62
2023/04/06 09:44:21;;;;;;;15.93;13.03;;;13.00;99.90;;;;;;5057228;28;20485;-61
2023/04/06 09:46:49;;;;;;;15.53;13.10;;;13.00;99.90;;;;;;5052685;28;20465;-60
2023/04/06 09:49:16;;;;;;;18.13;13.77;;;13.20;99.90;;;;;;5054757;28;20516;-62
2023/04/06 09:51:49;;;;;;;19.90;13.40;;;13.40;99.90;;;;;;5054632;28;20490;-58
2023/04/06 09:54:21;;;;;;;19.03;14.87;;;13.50;99.90;;;;;;5052876;28;20516;-61
2023/04/06 09:56:57;;;;;;;18.93;14.13;;;13.90;99.90;;;;;;5053552;28;20490;-62
2023/04/06 09:59:32;;;;;;;16.73;14.07;;;14.20;99.90;;;;;;5055465;28;20834;-62
2023/04/06 10:02:00;;;;;;;16.53;13.87;;;14.40;99.90;;;;;;5055052;28;20512;-63
2023/04/06 10:04:37;;;;;;;20.27;15.40;;;14.60;99.90;;;;;;5057408;28;20508;-62
2023/04/06 10:07:07;;;;;;;21.70;15.37;;;14.60;99.90;;;;;;5041445;28;20516;-59
2023/04/06 10:09:37;;;;;;;17.30;15.40;;;14.90;99.90;;;;;;5037888;28;20805;-59
2023/04/06 10:12:07;;;;;;;18.50;15.17;;;14.50;99.90;;;;;;5037889;28;20802;-58
2023/04/06 10:14:36;;;;;;;19.73;15.53;;;14.70;99.90;;;;;;5036855;28;21167;-62
2023/04/06 10:17:05;;;;;;;17.43;14.40;;;14.60;99.90;;;;;;5036067;28;20561;-57
2023/04/06 10:19:41;;;;;;;19.40;14.90;;;14.70;99.90;;;;;;5036062;28;20512;-61
2023/04/06 10:22:11;;;;;;;19.07;15.60;;;14.90;99.90;;;;;;5035371;28;20459;-60
2023/04/06 10:24:38;;;;;;;17.27;15.33;;;14.90;99.90;;;;;;5035665;28;20463;-62
2023/04/06 10:27:10;;;;;;;19.00;16.03;;;14.90;99.90;;;;;;5035517;28;20467;-61
2023/04/06 10:29:46;;;;;;;16.70;14.90;;;15.10;99.90;;;;;;5054082;28;20470;-62
2023/04/06 10:32:13;;;;;;;20.47;17.00;;;15.30;99.90;;;;;;5054146;28;20453;-62
2023/04/06 10:34:41;;;;;;;20.10;16.40;;;15.20;99.90;;;;;;5056553;28;20531;-62
2023/04/06 10:37:15;;;;;;;18.10;15.00;;;15.20;99.90;;;;;;5054183;28;20506;-62
2023/04/06 10:39:54;;;;;;;23.83;16.80;;;15.20;99.90;;;;;;5055607;28;20465;-60
2023/04/06 10:42:37;;;;;;;25.93;19.93;;;15.10;99.90;;;;;;5054046;28;20894;-62
2023/04/06 10:45:08;;;;;;;18.67;16.10;;;15.10;99.90;;;;;;5036198;28;20553;-60
2023/04/06 10:47:41;;;;;;;16.87;15.07;;;15.10;99.90;;;;;;5048650;28;20520;-62
2023/04/06 10:50:09;;;;;;;20.70;17.47;;;15.20;99.90;;;;;;5054992;28;20489;-61
2023/04/06 10:52:36;;;;;;;24.07;20.27;;;15.40;99.90;;;;;;5055490;28;20953;-62
2023/04/06 10:55:04;;;;;;;23.50;19.23;;;15.50;99.90;;;;;;5055606;28;20980;-62
2023/04/06 10:57:32;;;;;;;21.70;19.27;;;15.70;99.90;;;;;;5054725;28;20470;-61
2023/04/06 11:00:00;;;;;;;22.17;17.77;;;15.60;99.90;;;;;;5056934;28;20580;-62
2023/04/06 11:02:27;;;;;;;29.53;21.77;;;15.00;99.90;;;;;;5056779;28;20879;-59
2023/04/06 11:04:58;;;;;;;20.90;17.77;;;14.80;99.90;;;;;;5055064;28;20960;-61
2023/04/06 11:07:26;;;;;;;21.50;17.73;;;14.70;99.90;;;;;;5055166;28;20519;-62
2023/04/06 11:09:54;;;;;;;21.50;19.27;;;14.80;99.90;;;;;;5055616;28;20764;-61
2023/04/06 11:12:25;;;;;;;19.63;16.93;;;15.10;99.90;;;;;;5056230;28;20910;-62
2023/04/06 11:15:03;;;;;;;19.50;16.93;;;14.90;99.90;;;;;;5059072;28;20602;-62
2023/04/06 11:17:32;;;;;;;19.50;16.93;;;15.30;99.90;;;;;;5059580;28;20465;-62
2023/04/06 11:19:59;;;;;;;20.50;16.20;;;15.30;99.90;;;;;;5059710;28;20551;-62
2023/04/06 11:22:27;;;;;;;18.63;16.70;;;15.40;99.90;;;;;;5060695;28;20511;-61
2023/04/06 11:25:05;;;;;;;18.73;16.57;;;15.60;99.90;;;;;;5060833;28;20465;-62
2023/04/06 11:27:32;;;;;;;26.57;16.40;;;15.70;99.90;;;;;;5059999;28;20465;-62
2023/04/06 11:30:02;;;;;;;19.20;17.00;;;15.30;99.90;;;;;;5060805;28;20462;-61
2023/04/06 11:32:29;;;;;;;18.33;15.90;;;15.00;99.90;;;;;;5059346;28;20875;-62
2023/04/06 11:34:59;;;;;;;20.23;16.60;;;15.20;99.90;;;;;;5057904;28;20499;-62
2023/04/06 11:37:28;;;;;;;17.77;15.00;;;15.50;99.90;;;;;;5056765;28;20486;-62
2023/04/06 11:39:57;;;;;;;18.47;14.87;;;15.80;99.90;;;;;;5057580;28;20612;-61
2023/04/06 11:42:26;;;;;;;21.00;17.00;;;16.20;99.90;;;;;;5056231;28;20591;-62
2023/04/06 11:44:55;;;;;;;16.67;14.17;;;16.30;99.90;;;;;;5055934;28;20759;-61
2023/04/06 11:47:30;;;;;;;16.93;14.97;;;16.20;99.90;;;;;;5053616;28;20524;-62
2023/04/06 11:50:06;;;;;;;15.10;13.60;;;16.20;99.90;;;;;;5054687;28;20469;-61
2023/04/06 11:52:34;;;;;;;17.70;14.97;;;16.30;99.90;;;;;;5052111;28;20470;-61
2023/04/06 11:55:12;;;;;;;16.83;13.70;;;15.80;99.90;;;;;;5056316;28;20528;-61
2023/04/06 11:57:40;;;;;;;16.70;13.97;;;15.60;99.90;;;;;;5055556;28;20536;-62
2023/04/06 12:00:09;;;;;;;15.20;13.63;;;15.50;99.90;;;;;;5054317;28;20555;-61
2023/04/06 12:02:38;;;;;;;18.87;14.97;;;15.60;99.90;;;;;;5054181;28;20450;-62
2023/04/06 12:05:08;;;;;;;15.47;12.97;;;15.60;99.90;;;;;;5055080;28;20458;-62
2023/04/06 12:07:36;;;;;;;17.43;14.50;;;15.60;99.90;;;;;;5053369;28;20454;-61
2023/04/06 12:10:04;;;;;;;18.70;14.43;;;15.90;99.90;;;;;;5055303;28;20466;-62
2023/04/06 12:12:32;;;;;;;17.03;14.00;;;16.10;99.90;;;;;;5054971;28;20454;-61
2023/04/06 12:14:59;;;;;;;16.43;13.33;;;16.30;99.90;;;;;;5055673;28;20493;-62
2023/04/06 12:17:27;;;;;;;23.60;15.10;;;16.00;99.90;;;;;;5055982;28;20753;-62
2023/04/06 12:19:55;;;;;;;17.00;14.50;;;15.90;99.90;;;;;;5056441;28;20952;-60
2023/04/06 12:22:23;;;;;;;19.10;16.37;;;15.50;99.90;;;;;;5056350;28;20521;-61
2023/04/06 12:24:50;;;;;;;20.70;16.20;;;14.80;99.90;;;;;;5055501;28;20462;-62
2023/04/06 12:27:17;;;;;;;22.73;15.40;;;14.90;99.90;;;;;;5054475;28;20488;-61
2023/04/06 12:29:44;;;;;;;16.90;14.93;;;15.00;99.90;;;;;;5057430;28;20535;-61
2023/04/06 12:32:12;;;;;;;16.10;14.07;;;14.90;99.90;;;;;;5055483;28;20462;-61
2023/04/06 12:34:39;;;;;;;17.53;14.77;;;14.40;99.90;;;;;;5055362;28;20469;-62
2023/04/06 12:37:08;;;;;;;17.97;13.83;;;14.70;99.90;;;;;;5055388;28;20490;-62
2023/04/06 12:39:35;;;;;;;15.70;14.10;;;14.90;99.90;;;;;;5057898;28;20466;-62
2023/04/06 12:42:04;;;;;;;18.53;14.27;;;14.80;99.90;;;;;;5058751;28;20533;-59